sensor_id;sensor_type;location;lat;lon;timestamp;temperature;humidity
69436;SHT31;56625;54.322;18.582;2022-09-12T00:01:25;11.73;79.68
69436;SHT31;56625;54.322;18.582;2022-09-12T00:03:54;11.74;79.64
69436;SHT31;56625;54.322;18.582;2022-09-12T00:09:04;11.77;79.46
69436;SHT31;56625;54.322;18.582;2022-09-12T00:11:36;11.74;79.38
69436;SHT31;56625;54.322;18.582;2022-09-12T00:14:08;11.73;79.39
69436;SHT31;56625;54.322;18.582;2022-09-12T00:16:39;11.72;79.51
69436;SHT31;56625;54.322;18.582;2022-09-12T00:19:08;11.73;79.41
69436;SHT31;56625;54.322;18.582;2022-09-12T00:21:38;11.70;79.46
69436;SHT31;56625;54.322;18.582;2022-09-12T00:24:07;11.69;79.40
69436;SHT31;56625;54.322;18.582;2022-09-12T00:26:36;11.68;79.41
69436;SHT31;56625;54.322;18.582;2022-09-12T00:29:04;11.68;79.52
69436;SHT31;56625;54.322;18.582;2022-09-12T00:31:32;11.69;79.39
69436;SHT31;56625;54.322;18.582;2022-09-12T00:34:00;11.70;79.55
69436;SHT31;56625;54.322;18.582;2022-09-12T00:36:29;11.70;79.43
69436;SHT31;56625;54.322;18.582;2022-09-12T00:38:57;11.70;79.48
69436;SHT31;56625;54.322;18.582;2022-09-12T00:41:29;11.69;79.44
69436;SHT31;56625;54.322;18.582;2022-09-12T00:44:01;11.66;79.63
69436;SHT31;56625;54.322;18.582;2022-09-12T00:46:53;11.63;79.74
69436;SHT31;56625;54.322;18.582;2022-09-12T00:49:33;11.61;79.85
69436;SHT31;56625;54.322;18.582;2022-09-12T00:52:07;11.60;79.92
69436;SHT31;56625;54.322;18.582;2022-09-12T01:00:43;11.58;80.16
69436;SHT31;56625;54.322;18.582;2022-09-12T01:03:13;11.56;80.16
69436;SHT31;56625;54.322;18.582;2022-09-12T01:08:42;11.53;80.12
69436;SHT31;56625;54.322;18.582;2022-09-12T01:11:13;11.51;80.37
69436;SHT31;56625;54.322;18.582;2022-09-12T01:13:43;11.48;80.33
69436;SHT31;56625;54.322;18.582;2022-09-12T01:16:12;11.40;80.52
69436;SHT31;56625;54.322;18.582;2022-09-12T01:18:43;11.37;80.72
69436;SHT31;56625;54.322;18.582;2022-09-12T01:27:42;11.30;80.81
69436;SHT31;56625;54.322;18.582;2022-09-12T01:38:52;11.27;80.87
69436;SHT31;56625;54.322;18.582;2022-09-12T01:41:39;11.26;81.08
69436;SHT31;56625;54.322;18.582;2022-09-12T01:44:34;11.28;81.00
69436;SHT31;56625;54.322;18.582;2022-09-12T01:47:28;11.27;80.90
69436;SHT31;56625;54.322;18.582;2022-09-12T01:50:17;11.24;80.87
69436;SHT31;56625;54.322;18.582;2022-09-12T01:52:52;11.23;81.10
69436;SHT31;56625;54.322;18.582;2022-09-12T01:55:27;11.24;80.95
69436;SHT31;56625;54.322;18.582;2022-09-12T02:00:54;11.24;80.81
69436;SHT31;56625;54.322;18.582;2022-09-12T02:03:42;11.25;80.71
69436;SHT31;56625;54.322;18.582;2022-09-12T02:06:19;11.24;80.80
69436;SHT31;56625;54.322;18.582;2022-09-12T02:08:59;11.26;80.86
69436;SHT31;56625;54.322;18.582;2022-09-12T02:11:37;11.26;80.79
69436;SHT31;56625;54.322;18.582;2022-09-12T02:14:11;11.29;80.80
69436;SHT31;56625;54.322;18.582;2022-09-12T02:17:03;11.30;80.59
69436;SHT31;56625;54.322;18.582;2022-09-12T02:19:45;11.31;80.56
69436;SHT31;56625;54.322;18.582;2022-09-12T02:22:19;11.33;80.56
69436;SHT31;56625;54.322;18.582;2022-09-12T02:24:55;11.33;80.69
69436;SHT31;56625;54.322;18.582;2022-09-12T02:27:32;11.35;80.46
69436;SHT31;56625;54.322;18.582;2022-09-12T02:30:09;11.38;80.42
69436;SHT31;56625;54.322;18.582;2022-09-12T02:35:30;11.40;80.45
69436;SHT31;56625;54.322;18.582;2022-09-12T02:38:13;11.43;80.24
69436;SHT31;56625;54.322;18.582;2022-09-12T02:41:00;11.44;80.12
69436;SHT31;56625;54.322;18.582;2022-09-12T02:43:28;11.44;80.10
69436;SHT31;56625;54.322;18.582;2022-09-12T02:45:56;11.45;80.09
69436;SHT31;56625;54.322;18.582;2022-09-12T02:48:26;11.47;80.14
69436;SHT31;56625;54.322;18.582;2022-09-12T02:51:01;11.52;79.89
69436;SHT31;56625;54.322;18.582;2022-09-12T02:53:30;11.54;79.80
69436;SHT31;56625;54.322;18.582;2022-09-12T02:56:00;11.55;79.78
69436;SHT31;56625;54.322;18.582;2022-09-12T02:58:29;11.56;79.80
69436;SHT31;56625;54.322;18.582;2022-09-12T03:01:11;11.56;79.63
69436;SHT31;56625;54.322;18.582;2022-09-12T03:03:58;11.52;79.62
69436;SHT31;56625;54.322;18.582;2022-09-12T03:09:29;11.45;79.71
69436;SHT31;56625;54.322;18.582;2022-09-12T03:12:15;11.42;79.72
69436;SHT31;56625;54.322;18.582;2022-09-12T03:16:29;11.40;79.75
69436;SHT31;56625;54.322;18.582;2022-09-12T03:21:37;11.36;79.80
69436;SHT31;56625;54.322;18.582;2022-09-12T03:24:34;11.37;79.82
69436;SHT31;56625;54.322;18.582;2022-09-12T03:27:20;11.33;79.94
69436;SHT31;56625;54.322;18.582;2022-09-12T03:29:56;11.29;80.02
69436;SHT31;56625;54.322;18.582;2022-09-12T03:32:39;11.25;80.22
69436;SHT31;56625;54.322;18.582;2022-09-12T03:35:15;11.21;80.32
69436;SHT31;56625;54.322;18.582;2022-09-12T03:37:50;11.16;80.47
69436;SHT31;56625;54.322;18.582;2022-09-12T03:40:19;11.14;80.55
69436;SHT31;56625;54.322;18.582;2022-09-12T03:42:47;11.11;80.69
69436;SHT31;56625;54.322;18.582;2022-09-12T03:45:15;11.09;80.91
69436;SHT31;56625;54.322;18.582;2022-09-12T03:47:43;11.06;80.96
69436;SHT31;56625;54.322;18.582;2022-09-12T03:50:11;11.05;81.11
69436;SHT31;56625;54.322;18.582;2022-09-12T03:52:38;11.04;81.19
69436;SHT31;56625;54.322;18.582;2022-09-12T03:55:06;11.04;81.16
69436;SHT31;56625;54.322;18.582;2022-09-12T03:57:34;11.05;81.19
69436;SHT31;56625;54.322;18.582;2022-09-12T04:00:03;11.04;81.18
69436;SHT31;56625;54.322;18.582;2022-09-12T04:02:34;11.04;81.21
69436;SHT31;56625;54.322;18.582;2022-09-12T04:05:02;11.04;81.29
69436;SHT31;56625;54.322;18.582;2022-09-12T04:07:31;11.03;81.28
69436;SHT31;56625;54.322;18.582;2022-09-12T04:09:59;11.04;81.25
69436;SHT31;56625;54.322;18.582;2022-09-12T04:12:27;11.05;81.23
69436;SHT31;56625;54.322;18.582;2022-09-12T04:14:56;11.03;81.23
69436;SHT31;56625;54.322;18.582;2022-09-12T04:17:23;11.05;81.18
69436;SHT31;56625;54.322;18.582;2022-09-12T04:19:51;11.05;81.11
69436;SHT31;56625;54.322;18.582;2022-09-12T04:22:19;11.08;81.00
69436;SHT31;56625;54.322;18.582;2022-09-12T04:24:47;11.09;80.90
69436;SHT31;56625;54.322;18.582;2022-09-12T04:27:15;11.10;80.84
69436;SHT31;56625;54.322;18.582;2022-09-12T04:29:43;11.14;80.69
69436;SHT31;56625;54.322;18.582;2022-09-12T04:32:10;11.15;80.59
69436;SHT31;56625;54.322;18.582;2022-09-12T04:34:38;11.21;80.47
69436;SHT31;56625;54.322;18.582;2022-09-12T04:37:06;11.30;80.22
69436;SHT31;56625;54.322;18.582;2022-09-12T04:39:34;11.35;79.97
69436;SHT31;56625;54.322;18.582;2022-09-12T04:42:02;11.32;79.95
69436;SHT31;56625;54.322;18.582;2022-09-12T04:44:31;11.30;80.06
69436;SHT31;56625;54.322;18.582;2022-09-12T04:46:58;11.34;80.02
69436;SHT31;56625;54.322;18.582;2022-09-12T04:49:26;11.39;79.88
69436;SHT31;56625;54.322;18.582;2022-09-12T04:51:54;11.48;79.59
69436;SHT31;56625;54.322;18.582;2022-09-12T04:54:22;11.60;79.17
69436;SHT31;56625;54.322;18.582;2022-09-12T04:56:50;11.69;78.86
69436;SHT31;56625;54.322;18.582;2022-09-12T04:59:19;11.78;78.53
69436;SHT31;56625;54.322;18.582;2022-09-12T05:01:48;11.85;78.20
69436;SHT31;56625;54.322;18.582;2022-09-12T05:04:16;11.90;77.92
69436;SHT31;56625;54.322;18.582;2022-09-12T05:06:44;11.88;77.89
69436;SHT31;56625;54.322;18.582;2022-09-12T05:09:14;11.88;77.93
69436;SHT31;56625;54.322;18.582;2022-09-12T05:11:58;11.89;77.95
69436;SHT31;56625;54.322;18.582;2022-09-12T05:14:32;11.95;77.84
69436;SHT31;56625;54.322;18.582;2022-09-12T05:17:02;12.01;77.64
69436;SHT31;56625;54.322;18.582;2022-09-12T05:19:40;12.08;77.55
69436;SHT31;56625;54.322;18.582;2022-09-12T05:22:11;12.15;77.34
69436;SHT31;56625;54.322;18.582;2022-09-12T05:24:39;12.22;77.08
69436;SHT31;56625;54.322;18.582;2022-09-12T05:27:16;12.30;76.83
69436;SHT31;56625;54.322;18.582;2022-09-12T05:29:51;12.34;76.67
69436;SHT31;56625;54.322;18.582;2022-09-12T05:32:19;12.40;76.59
69436;SHT31;56625;54.322;18.582;2022-09-12T05:34:47;12.48;76.46
69436;SHT31;56625;54.322;18.582;2022-09-12T05:37:16;12.56;76.26
69436;SHT31;56625;54.322;18.582;2022-09-12T05:39:44;12.65;76.05
69436;SHT31;56625;54.322;18.582;2022-09-12T05:42:32;12.72;75.90
69436;SHT31;56625;54.322;18.582;2022-09-12T05:45:07;12.77;75.69
69436;SHT31;56625;54.322;18.582;2022-09-12T05:48:02;12.87;75.31
69436;SHT31;56625;54.322;18.582;2022-09-12T05:50:48;12.95;75.22
69436;SHT31;56625;54.322;18.582;2022-09-12T05:57:00;13.23;74.12
69436;SHT31;56625;54.322;18.582;2022-09-12T05:59:54;13.38;73.67
69436;SHT31;56625;54.322;18.582;2022-09-12T06:03:03;13.54;73.09
69436;SHT31;56625;54.322;18.582;2022-09-12T06:05:32;13.66;72.64
69436;SHT31;56625;54.322;18.582;2022-09-12T06:08:01;13.78;72.08
69436;SHT31;56625;54.322;18.582;2022-09-12T06:10:50;13.95;71.59
69436;SHT31;56625;54.322;18.582;2022-09-12T06:13:32;14.08;71.08
69436;SHT31;56625;54.322;18.582;2022-09-12T06:16:18;14.23;70.65
69436;SHT31;56625;54.322;18.582;2022-09-12T06:19:32;14.38;69.98
69436;SHT31;56625;54.322;18.582;2022-09-12T06:22:38;14.48;69.39
69436;SHT31;56625;54.322;18.582;2022-09-12T06:25:14;14.57;68.94
69436;SHT31;56625;54.322;18.582;2022-09-12T06:27:55;14.65;68.95
69436;SHT31;56625;54.322;18.582;2022-09-12T06:31:00;14.77;68.61
69436;SHT31;56625;54.322;18.582;2022-09-12T06:34:07;14.90;68.40
69436;SHT31;56625;54.322;18.582;2022-09-12T06:36:59;15.01;68.13
69436;SHT31;56625;54.322;18.582;2022-09-12T06:39:28;15.13;67.86
69436;SHT31;56625;54.322;18.582;2022-09-12T06:41:56;15.28;67.71
69436;SHT31;56625;54.322;18.582;2022-09-12T06:44:25;15.49;67.93
69436;SHT31;56625;54.322;18.582;2022-09-12T06:46:52;15.73;67.58
69436;SHT31;56625;54.322;18.582;2022-09-12T06:49:20;15.94;66.56
69436;SHT31;56625;54.322;18.582;2022-09-12T06:51:48;16.11;66.37
69436;SHT31;56625;54.322;18.582;2022-09-12T06:54:16;16.26;65.61
69436;SHT31;56625;54.322;18.582;2022-09-12T06:56:44;16.33;64.58
69436;SHT31;56625;54.322;18.582;2022-09-12T06:59:12;16.40;64.56
69436;SHT31;56625;54.322;18.582;2022-09-12T07:01:40;16.47;64.30
69436;SHT31;56625;54.322;18.582;2022-09-12T07:04:08;16.50;64.05
69436;SHT31;56625;54.322;18.582;2022-09-12T07:06:38;16.54;63.43
69436;SHT31;56625;54.322;18.582;2022-09-12T07:09:10;16.59;63.38
69436;SHT31;56625;54.322;18.582;2022-09-12T07:11:43;16.69;63.29
69436;SHT31;56625;54.322;18.582;2022-09-12T07:14:13;16.84;63.01
69436;SHT31;56625;54.322;18.582;2022-09-12T07:16:41;17.04;63.05
69436;SHT31;56625;54.322;18.582;2022-09-12T07:19:10;17.24;62.58
69436;SHT31;56625;54.322;18.582;2022-09-12T07:21:38;17.44;62.30
69436;SHT31;56625;54.322;18.582;2022-09-12T07:24:08;17.55;61.29
69436;SHT31;56625;54.322;18.582;2022-09-12T07:26:39;17.61;60.92
69436;SHT31;56625;54.322;18.582;2022-09-12T07:29:12;17.70;60.71
69436;SHT31;56625;54.322;18.582;2022-09-12T07:32:12;17.86;61.31
69436;SHT31;56625;54.322;18.582;2022-09-12T07:35:09;18.06;60.34
69436;SHT31;56625;54.322;18.582;2022-09-12T07:37:54;18.16;59.07
69436;SHT31;56625;54.322;18.582;2022-09-12T07:40:45;18.33;59.21
69436;SHT31;56625;54.322;18.582;2022-09-12T07:43:22;18.54;58.78
69436;SHT31;56625;54.322;18.582;2022-09-12T07:46:01;18.56;57.92
69436;SHT31;56625;54.322;18.582;2022-09-12T07:48:30;18.41;58.10
69436;SHT31;56625;54.322;18.582;2022-09-12T07:51:10;18.44;58.10
69436;SHT31;56625;54.322;18.582;2022-09-12T07:54:07;18.65;57.45
69436;SHT31;56625;54.322;18.582;2022-09-12T07:57:37;18.91;56.65
69436;SHT31;56625;54.322;18.582;2022-09-12T08:00:18;19.09;56.51
69436;SHT31;56625;54.322;18.582;2022-09-12T08:03:48;19.25;56.41
69436;SHT31;56625;54.322;18.582;2022-09-12T08:07:24;19.33;56.60
69436;SHT31;56625;54.322;18.582;2022-09-12T08:09:54;19.51;54.95
69436;SHT31;56625;54.322;18.582;2022-09-12T08:12:30;19.53;53.45
69436;SHT31;56625;54.322;18.582;2022-09-12T08:15:01;19.50;53.48
69436;SHT31;56625;54.322;18.582;2022-09-12T08:17:43;19.59;53.41
69436;SHT31;56625;54.322;18.582;2022-09-12T08:20:44;19.81;54.01
69436;SHT31;56625;54.322;18.582;2022-09-12T08:23:50;19.82;53.32
69436;SHT31;56625;54.322;18.582;2022-09-12T08:26:28;19.67;52.33
69436;SHT31;56625;54.322;18.582;2022-09-12T08:29:03;19.65;51.61
69436;SHT31;56625;54.322;18.582;2022-09-12T08:31:48;19.70;51.13
69436;SHT31;56625;54.322;18.582;2022-09-12T08:34:24;19.66;51.57
69436;SHT31;56625;54.322;18.582;2022-09-12T08:37:05;19.71;52.28
69436;SHT31;56625;54.322;18.582;2022-09-12T08:39:41;19.87;50.95
69436;SHT31;56625;54.322;18.582;2022-09-12T08:42:34;19.79;51.50
69436;SHT31;56625;54.322;18.582;2022-09-12T08:45:39;19.62;51.17
69436;SHT31;56625;54.322;18.582;2022-09-12T08:48:24;19.44;51.84
69436;SHT31;56625;54.322;18.582;2022-09-12T08:50:56;19.42;52.32
69436;SHT31;56625;54.322;18.582;2022-09-12T08:53:25;19.20;52.66
69436;SHT31;56625;54.322;18.582;2022-09-12T08:56:05;19.11;53.49
69436;SHT31;56625;54.322;18.582;2022-09-12T08:58:40;19.12;52.96
69436;SHT31;56625;54.322;18.582;2022-09-12T09:01:31;18.97;52.95
69436;SHT31;56625;54.322;18.582;2022-09-12T09:04:35;18.81;53.96
69436;SHT31;56625;54.322;18.582;2022-09-12T09:13:36;18.35;54.48
69436;SHT31;56625;54.322;18.582;2022-09-12T09:16:35;18.36;54.95
69436;SHT31;56625;54.322;18.582;2022-09-12T09:19:16;18.76;54.51
69436;SHT31;56625;54.322;18.582;2022-09-12T09:22:02;19.14;54.24
69436;SHT31;56625;54.322;18.582;2022-09-12T09:24:48;19.20;52.80
69436;SHT31;56625;54.322;18.582;2022-09-12T09:27:35;19.10;53.13
69436;SHT31;56625;54.322;18.582;2022-09-12T09:30:14;19.05;52.90
69436;SHT31;56625;54.322;18.582;2022-09-12T09:32:48;19.07;52.24
69436;SHT31;56625;54.322;18.582;2022-09-12T09:35:28;18.95;52.55
69436;SHT31;56625;54.322;18.582;2022-09-12T09:41:06;18.92;52.11
69436;SHT31;56625;54.322;18.582;2022-09-12T09:44:34;19.31;51.46
69436;SHT31;56625;54.322;18.582;2022-09-12T09:47:03;19.39;51.17
69436;SHT31;56625;54.322;18.582;2022-09-12T09:49:32;19.41;51.29
69436;SHT31;56625;54.322;18.582;2022-09-12T09:52:02;19.31;51.12
69436;SHT31;56625;54.322;18.582;2022-09-12T09:54:35;19.21;51.68
69436;SHT31;56625;54.322;18.582;2022-09-12T10:05:44;20.18;50.18
69436;SHT31;56625;54.322;18.582;2022-09-12T10:08:31;19.95;48.91
69436;SHT31;56625;54.322;18.582;2022-09-12T10:11:30;19.66;49.56
69436;SHT31;56625;54.322;18.582;2022-09-12T10:17:26;19.84;48.78
69436;SHT31;56625;54.322;18.582;2022-09-12T10:20:22;19.69;49.31
69436;SHT31;56625;54.322;18.582;2022-09-12T10:23:30;19.97;47.51
69436;SHT31;56625;54.322;18.582;2022-09-12T10:26:10;20.24;46.00
69436;SHT31;56625;54.322;18.582;2022-09-12T10:28:51;20.50;47.08
69436;SHT31;56625;54.322;18.582;2022-09-12T10:31:40;20.84;47.50
69436;SHT31;56625;54.322;18.582;2022-09-12T10:34:19;21.27;47.49
69436;SHT31;56625;54.322;18.582;2022-09-12T10:36:53;21.45;46.24
69436;SHT31;56625;54.322;18.582;2022-09-12T10:39:29;21.20;46.89
69436;SHT31;56625;54.322;18.582;2022-09-12T10:42:00;20.91;46.68
69436;SHT31;56625;54.322;18.582;2022-09-12T10:44:33;20.74;46.82
69436;SHT31;56625;54.322;18.582;2022-09-12T10:47:21;20.83;46.45
69436;SHT31;56625;54.322;18.582;2022-09-12T10:50:15;20.75;45.94
69436;SHT31;56625;54.322;18.582;2022-09-12T10:52:54;20.80;47.33
69436;SHT31;56625;54.322;18.582;2022-09-12T11:13:10;20.25;47.64
69436;SHT31;56625;54.322;18.582;2022-09-12T11:16:05;20.51;47.39
69436;SHT31;56625;54.322;18.582;2022-09-12T11:27:45;20.37;47.08
69436;SHT31;56625;54.322;18.582;2022-09-12T11:30:55;20.36;47.94
69436;SHT31;56625;54.322;18.582;2022-09-12T11:34:32;20.52;47.27
69436;SHT31;56625;54.322;18.582;2022-09-12T11:37:28;20.38;47.23
69436;SHT31;56625;54.322;18.582;2022-09-12T11:40:18;20.25;47.91
69436;SHT31;56625;54.322;18.582;2022-09-12T11:43:05;20.39;47.78
69436;SHT31;56625;54.322;18.582;2022-09-12T11:46:45;20.55;47.88
69436;SHT31;56625;54.322;18.582;2022-09-12T11:51:47;20.66;47.72
69436;SHT31;56625;54.322;18.582;2022-09-12T11:54:38;20.74;47.92
69436;SHT31;56625;54.322;18.582;2022-09-12T11:59:52;20.29;47.62
69436;SHT31;56625;54.322;18.582;2022-09-12T12:02:38;20.18;48.27
69436;SHT31;56625;54.322;18.582;2022-09-12T12:05:50;20.24;48.48
69436;SHT31;56625;54.322;18.582;2022-09-12T12:08:26;20.17;48.30
69436;SHT31;56625;54.322;18.582;2022-09-12T12:11:02;20.19;48.43
69436;SHT31;56625;54.322;18.582;2022-09-12T12:13:34;20.10;48.24
69436;SHT31;56625;54.322;18.582;2022-09-12T12:16:19;20.07;48.32
69436;SHT31;56625;54.322;18.582;2022-09-12T12:18:53;20.00;48.16
69436;SHT31;56625;54.322;18.582;2022-09-12T12:24:13;19.90;48.44
69436;SHT31;56625;54.322;18.582;2022-09-12T12:39:59;19.72;48.30
69436;SHT31;56625;54.322;18.582;2022-09-12T12:47:45;19.63;49.19
69436;SHT31;56625;54.322;18.582;2022-09-12T12:52:54;19.63;48.92
69436;SHT31;56625;54.322;18.582;2022-09-12T12:55:38;19.57;48.93
69436;SHT31;56625;54.322;18.582;2022-09-12T12:58:30;19.51;49.19
69436;SHT31;56625;54.322;18.582;2022-09-12T13:03:32;19.49;49.25
69436;SHT31;56625;54.322;18.582;2022-09-12T13:06:01;19.50;49.50
69436;SHT31;56625;54.322;18.582;2022-09-12T13:08:42;19.47;49.53
69436;SHT31;56625;54.322;18.582;2022-09-12T13:11:36;19.40;49.77
69436;SHT31;56625;54.322;18.582;2022-09-12T13:14:20;19.43;49.32
69436;SHT31;56625;54.322;18.582;2022-09-12T13:17:22;19.38;49.62
69436;SHT31;56625;54.322;18.582;2022-09-12T13:23:03;19.44;49.89
69436;SHT31;56625;54.322;18.582;2022-09-12T13:26:01;19.56;49.99
69436;SHT31;56625;54.322;18.582;2022-09-12T13:34:16;19.77;48.42
69436;SHT31;56625;54.322;18.582;2022-09-12T13:37:58;19.75;48.76
69436;SHT31;56625;54.322;18.582;2022-09-12T13:45:32;19.45;49.31
69436;SHT31;56625;54.322;18.582;2022-09-12T13:49:39;19.51;49.78
69436;SHT31;56625;54.322;18.582;2022-09-12T13:53:58;19.38;48.67
69436;SHT31;56625;54.322;18.582;2022-09-12T13:57:08;19.34;49.41
69436;SHT31;56625;54.322;18.582;2022-09-12T14:01:09;19.48;49.30
69436;SHT31;56625;54.322;18.582;2022-09-12T14:11:17;19.85;49.03
69436;SHT31;56625;54.322;18.582;2022-09-12T14:15:31;19.71;48.49
69436;SHT31;56625;54.322;18.582;2022-09-12T14:18:33;19.64;48.19
69436;SHT31;56625;54.322;18.582;2022-09-12T14:21:33;19.51;48.30
69436;SHT31;56625;54.322;18.582;2022-09-12T14:25:01;19.36;48.41
69436;SHT31;56625;54.322;18.582;2022-09-12T14:28:33;19.16;49.08
69436;SHT31;56625;54.322;18.582;2022-09-12T14:31:03;19.16;49.44
69436;SHT31;56625;54.322;18.582;2022-09-12T14:33:54;19.08;49.49
69436;SHT31;56625;54.322;18.582;2022-09-12T14:39:18;19.00;50.54
69436;SHT31;56625;54.322;18.582;2022-09-12T14:42:11;18.94;50.05
69436;SHT31;56625;54.322;18.582;2022-09-12T14:44:55;18.94;50.89
69436;SHT31;56625;54.322;18.582;2022-09-12T14:47:32;19.01;50.57
69436;SHT31;56625;54.322;18.582;2022-09-12T14:50:24;19.02;50.36
69436;SHT31;56625;54.322;18.582;2022-09-12T14:56:11;18.86;50.60
69436;SHT31;56625;54.322;18.582;2022-09-12T14:58:44;18.71;51.28
69436;SHT31;56625;54.322;18.582;2022-09-12T15:06:19;18.49;52.00
69436;SHT31;56625;54.322;18.582;2022-09-12T15:09:11;18.42;52.26
69436;SHT31;56625;54.322;18.582;2022-09-12T15:11:40;18.39;52.03
69436;SHT31;56625;54.322;18.582;2022-09-12T15:14:11;18.35;52.07
69436;SHT31;56625;54.322;18.582;2022-09-12T15:16:41;18.26;52.08
69436;SHT31;56625;54.322;18.582;2022-09-12T15:19:09;18.18;52.37
69436;SHT31;56625;54.322;18.582;2022-09-12T15:21:37;18.17;52.48
69436;SHT31;56625;54.322;18.582;2022-09-12T15:24:04;18.13;52.35
69436;SHT31;56625;54.322;18.582;2022-09-12T15:26:32;18.01;53.06
69436;SHT31;56625;54.322;18.582;2022-09-12T15:29:01;17.92;53.49
69436;SHT31;56625;54.322;18.582;2022-09-12T15:31:30;17.86;54.29
69436;SHT31;56625;54.322;18.582;2022-09-12T15:34:00;17.78;54.96
69436;SHT31;56625;54.322;18.582;2022-09-12T15:36:30;17.75;55.27
69436;SHT31;56625;54.322;18.582;2022-09-12T15:38:58;17.73;55.78
69436;SHT31;56625;54.322;18.582;2022-09-12T15:41:32;17.70;56.03
69436;SHT31;56625;54.322;18.582;2022-09-12T15:44:04;17.72;56.28
69436;SHT31;56625;54.322;18.582;2022-09-12T15:46:41;17.67;56.58
69436;SHT31;56625;54.322;18.582;2022-09-12T15:49:09;17.60;56.91
69436;SHT31;56625;54.322;18.582;2022-09-12T15:51:37;17.54;57.23
69436;SHT31;56625;54.322;18.582;2022-09-12T15:54:05;17.51;57.32
69436;SHT31;56625;54.322;18.582;2022-09-12T15:56:33;17.54;57.50
69436;SHT31;56625;54.322;18.582;2022-09-12T15:59:01;17.55;57.61
69436;SHT31;56625;54.322;18.582;2022-09-12T16:01:29;17.54;57.59
69436;SHT31;56625;54.322;18.582;2022-09-12T16:03:57;17.47;57.58
69436;SHT31;56625;54.322;18.582;2022-09-12T16:06:25;17.42;57.93
69436;SHT31;56625;54.322;18.582;2022-09-12T16:09:02;17.38;58.28
69436;SHT31;56625;54.322;18.582;2022-09-12T16:11:30;17.32;58.85
69436;SHT31;56625;54.322;18.582;2022-09-12T16:13:59;17.25;59.02
69436;SHT31;56625;54.322;18.582;2022-09-12T16:16:27;17.20;59.55
69436;SHT31;56625;54.322;18.582;2022-09-12T16:18:57;17.10;59.89
69436;SHT31;56625;54.322;18.582;2022-09-12T16:21:25;17.00;60.21
69436;SHT31;56625;54.322;18.582;2022-09-12T16:23:54;16.92;60.43
69436;SHT31;56625;54.322;18.582;2022-09-12T16:26:22;16.86;60.80
69436;SHT31;56625;54.322;18.582;2022-09-12T16:29:01;16.79;60.99
69436;SHT31;56625;54.322;18.582;2022-09-12T16:31:30;16.73;61.40
69436;SHT31;56625;54.322;18.582;2022-09-12T16:34:03;16.69;61.65
69436;SHT31;56625;54.322;18.582;2022-09-12T16:36:32;16.67;61.87
69436;SHT31;56625;54.322;18.582;2022-09-12T16:39:01;16.63;62.20
69436;SHT31;56625;54.322;18.582;2022-09-12T16:41:29;16.58;62.59
69436;SHT31;56625;54.322;18.582;2022-09-12T16:43:57;16.52;62.77
69436;SHT31;56625;54.322;18.582;2022-09-12T16:46:26;16.43;63.19
69436;SHT31;56625;54.322;18.582;2022-09-12T16:48:55;16.39;63.39
69436;SHT31;56625;54.322;18.582;2022-09-12T16:51:27;16.37;63.54
69436;SHT31;56625;54.322;18.582;2022-09-12T16:54:08;16.33;63.75
69436;SHT31;56625;54.322;18.582;2022-09-12T16:56:54;16.29;64.08
69436;SHT31;56625;54.322;18.582;2022-09-12T16:59:22;16.25;64.27
69436;SHT31;56625;54.322;18.582;2022-09-12T17:01:51;16.19;64.67
69436;SHT31;56625;54.322;18.582;2022-09-12T17:04:25;16.14;65.03
69436;SHT31;56625;54.322;18.582;2022-09-12T17:06:53;16.05;65.58
69436;SHT31;56625;54.322;18.582;2022-09-12T17:09:26;15.92;65.81
69436;SHT31;56625;54.322;18.582;2022-09-12T17:11:59;15.74;66.26
69436;SHT31;56625;54.322;18.582;2022-09-12T17:14:29;15.60;66.55
69436;SHT31;56625;54.322;18.582;2022-09-12T17:16:57;15.48;66.95
69436;SHT31;56625;54.322;18.582;2022-09-12T17:19:44;15.38;67.32
69436;SHT31;56625;54.322;18.582;2022-09-12T17:22:16;15.28;67.62
69436;SHT31;56625;54.322;18.582;2022-09-12T17:24:44;15.17;67.90
69436;SHT31;56625;54.322;18.582;2022-09-12T17:27:17;15.11;68.13
69436;SHT31;56625;54.322;18.582;2022-09-12T17:29:45;15.03;68.68
69436;SHT31;56625;54.322;18.582;2022-09-12T17:32:17;14.97;69.03
69436;SHT31;56625;54.322;18.582;2022-09-12T17:34:50;14.91;68.96
69436;SHT31;56625;54.322;18.582;2022-09-12T17:37:21;14.84;69.25
69436;SHT31;56625;54.322;18.582;2022-09-12T17:39:49;14.77;69.42
69436;SHT31;56625;54.322;18.582;2022-09-12T17:42:21;14.72;70.04
69436;SHT31;56625;54.322;18.582;2022-09-12T17:44:51;14.67;70.23
69436;SHT31;56625;54.322;18.582;2022-09-12T17:47:20;14.64;70.18
69436;SHT31;56625;54.322;18.582;2022-09-12T17:49:49;14.62;70.40
69436;SHT31;56625;54.322;18.582;2022-09-12T17:52:35;14.57;70.69
69436;SHT31;56625;54.322;18.582;2022-09-12T17:55:05;14.53;71.01
69436;SHT31;56625;54.322;18.582;2022-09-12T17:57:34;14.50;71.18
69436;SHT31;56625;54.322;18.582;2022-09-12T18:00:02;14.46;71.51
69436;SHT31;56625;54.322;18.582;2022-09-12T18:02:32;14.40;71.79
69436;SHT31;56625;54.322;18.582;2022-09-12T18:05:04;14.37;72.08
69436;SHT31;56625;54.322;18.582;2022-09-12T18:07:33;14.34;72.25
69436;SHT31;56625;54.322;18.582;2022-09-12T18:10:08;14.32;72.49
69436;SHT31;56625;54.322;18.582;2022-09-12T18:12:37;14.31;72.40
69436;SHT31;56625;54.322;18.582;2022-09-12T18:15:06;14.26;72.86
69436;SHT31;56625;54.322;18.582;2022-09-12T18:17:35;14.21;73.42
69436;SHT31;56625;54.322;18.582;2022-09-12T18:20:04;14.17;73.87
69436;SHT31;56625;54.322;18.582;2022-09-12T18:22:37;14.15;73.62
69436;SHT31;56625;54.322;18.582;2022-09-12T18:25:11;14.11;73.79
69436;SHT31;56625;54.322;18.582;2022-09-12T18:27:40;14.06;74.00
69436;SHT31;56625;54.322;18.582;2022-09-12T18:30:09;14.04;73.91
69436;SHT31;56625;54.322;18.582;2022-09-12T18:32:51;14.01;73.85
69436;SHT31;56625;54.322;18.582;2022-09-12T18:35:25;14.01;73.90
69436;SHT31;56625;54.322;18.582;2022-09-12T18:38:03;14.00;74.03
69436;SHT31;56625;54.322;18.582;2022-09-12T18:40:32;13.94;74.32
69436;SHT31;56625;54.322;18.582;2022-09-12T18:43:05;13.82;74.88
69436;SHT31;56625;54.322;18.582;2022-09-12T18:45:33;13.74;75.10
69436;SHT31;56625;54.322;18.582;2022-09-12T18:48:05;13.66;75.41
69436;SHT31;56625;54.322;18.582;2022-09-12T18:50:39;13.56;75.95
69436;SHT31;56625;54.322;18.582;2022-09-12T18:53:08;13.45;76.37
69436;SHT31;56625;54.322;18.582;2022-09-12T18:55:36;13.39;76.56
69436;SHT31;56625;54.322;18.582;2022-09-12T18:58:07;13.34;76.60
69436;SHT31;56625;54.322;18.582;2022-09-12T19:00:39;13.33;76.51